createdAt,value
2023-04-06T00:00:00.763Z,6.28
2023-04-06T00:02:28.850Z,6.27
2023-04-06T00:04:56.931Z,6.16
2023-04-06T00:07:26.452Z,6.02
2023-04-06T00:09:54.416Z,5.80
2023-04-06T00:12:22.392Z,5.80
2023-04-06T00:14:50.465Z,5.92
2023-04-06T00:17:18.542Z,5.98
2023-04-06T00:19:46.641Z,6.01
2023-04-06T00:22:14.623Z,5.86
2023-04-06T00:24:44.044Z,5.82
2023-04-06T00:27:11.985Z,5.81
2023-04-06T00:29:42.005Z,5.74
2023-04-06T00:32:10.530Z,5.74
2023-04-06T00:34:38.524Z,5.77
2023-04-06T00:37:06.867Z,5.82
2023-04-06T00:39:34.810Z,5.83
2023-04-06T00:42:12.943Z,5.87
2023-04-06T00:44:41.043Z,5.82
2023-04-06T00:47:09.328Z,5.83
2023-04-06T00:49:37.648Z,5.89
2023-04-06T00:52:05.527Z,5.87
2023-04-06T00:54:33.850Z,5.89
2023-04-06T00:57:03.734Z,5.85
2023-04-06T00:59:32.007Z,5.88
2023-04-06T01:02:00.671Z,5.84
2023-04-06T01:04:29.313Z,5.86
2023-04-06T01:06:57.518Z,5.86
2023-04-06T01:09:25.807Z,5.83
2023-04-06T01:11:53.842Z,5.78
2023-04-06T01:14:23.783Z,5.73
2023-04-06T01:16:51.882Z,5.59
2023-04-06T01:19:20.301Z,5.57
2023-04-06T01:21:50.332Z,5.54
2023-04-06T01:24:19.914Z,5.57
2023-04-06T01:26:48.002Z,5.42
2023-04-06T01:29:15.936Z,5.56
2023-04-06T01:31:44.164Z,5.60
2023-04-06T01:34:12.385Z,5.66
2023-04-06T01:36:40.616Z,5.62
2023-04-06T01:39:09.096Z,5.64
2023-04-06T01:41:38.672Z,5.60
2023-04-06T01:44:07.164Z,5.58
2023-04-06T01:46:35.338Z,5.49
2023-04-06T01:49:03.392Z,5.44
2023-04-06T01:51:31.891Z,5.44
2023-04-06T01:53:59.943Z,5.44
2023-04-06T01:56:27.916Z,5.46
2023-04-06T01:58:57.331Z,5.46
2023-04-06T02:01:25.608Z,5.48
2023-04-06T02:03:53.575Z,5.47
2023-04-06T02:06:21.959Z,5.53
2023-04-06T02:08:50.036Z,5.51
2023-04-06T02:11:17.945Z,5.43
2023-04-06T02:13:45.940Z,5.36
2023-04-06T02:16:16.038Z,5.42
2023-04-06T02:18:44.100Z,5.35
2023-04-06T02:21:12.004Z,5.26
2023-04-06T02:23:39.929Z,5.21
2023-04-06T02:26:07.855Z,5.40
2023-04-06T02:28:35.783Z,5.38
2023-04-06T02:31:03.882Z,5.45
2023-04-06T02:33:33.195Z,5.48
2023-04-06T02:36:01.239Z,5.41
2023-04-06T02:38:29.355Z,5.35
2023-04-06T02:40:57.678Z,5.40
2023-04-06T02:43:25.813Z,5.39
2023-04-06T02:45:53.971Z,5.37
2023-04-06T02:48:22.142Z,5.27
2023-04-06T02:50:51.649Z,5.28
2023-04-06T02:53:19.720Z,5.28
2023-04-06T02:55:47.684Z,5.34
2023-04-06T02:58:15.566Z,5.21
2023-04-06T03:00:43.568Z,5.22
2023-04-06T03:03:11.695Z,5.25
2023-04-06T03:05:39.742Z,5.14
2023-04-06T03:08:09.142Z,5.14
2023-04-06T03:10:37.192Z,5.06
2023-04-06T03:13:05.160Z,5.00
2023-04-06T03:15:33.177Z,4.92
2023-04-06T03:18:01.332Z,4.89
2023-04-06T03:20:29.300Z,4.90
2023-04-06T03:22:57.416Z,4.91
2023-04-06T03:25:26.787Z,4.87
2023-04-06T03:27:54.649Z,4.86
2023-04-06T03:30:22.852Z,4.81
2023-04-06T03:32:50.967Z,4.86
2023-04-06T03:35:18.994Z,4.85
2023-04-06T03:37:47.152Z,4.90
2023-04-06T03:40:15.648Z,4.87
2023-04-06T03:42:45.189Z,4.86
2023-04-06T03:45:14.119Z,4.84
2023-04-06T03:47:42.144Z,4.58
2023-04-06T03:50:11.105Z,4.68
2023-04-06T03:52:39.076Z,4.66
2023-04-06T03:55:08.452Z,4.62
2023-04-06T03:57:36.335Z,4.63
2023-04-06T04:00:07.052Z,4.59
2023-04-06T04:02:35.181Z,4.56
2023-04-06T04:05:03.629Z,4.49
2023-04-06T04:07:31.757Z,4.47
2023-04-06T04:09:59.803Z,4.38
2023-04-06T04:12:27.785Z,4.42
2023-04-06T04:14:55.839Z,4.41
2023-04-06T04:17:26.812Z,4.52
2023-04-06T04:19:54.805Z,4.41
2023-04-06T04:22:22.817Z,4.27
2023-04-06T04:24:50.770Z,4.26
2023-04-06T04:27:19.000Z,4.24
2023-04-06T04:29:48.096Z,4.18
2023-04-06T04:32:16.601Z,4.24
2023-04-06T04:34:48.605Z,4.18
2023-04-06T04:37:16.601Z,4.12
2023-04-06T04:39:44.508Z,4.14
2023-04-06T04:42:12.396Z,4.15
2023-04-06T04:44:40.750Z,4.02
2023-04-06T04:47:08.634Z,4.10
2023-04-06T04:49:36.704Z,4.16
2023-04-06T04:52:06.122Z,4.26
2023-04-06T04:54:34.019Z,4.21
2023-04-06T04:57:03.709Z,4.06
2023-04-06T04:59:31.830Z,4.04
2023-04-06T05:01:59.723Z,3.88
2023-04-06T05:04:27.854Z,3.88
2023-04-06T05:07:06.849Z,3.77
2023-04-06T05:09:34.919Z,3.83
2023-04-06T05:12:03.106Z,3.68
2023-04-06T05:14:31.505Z,3.79
2023-04-06T05:16:59.458Z,3.85
2023-04-06T05:19:27.567Z,3.88
2023-04-06T05:21:55.638Z,3.88
2023-04-06T05:24:24.998Z,3.88
2023-04-06T05:26:52.982Z,3.95
2023-04-06T05:29:21.185Z,3.98
2023-04-06T05:31:49.545Z,4.07
2023-04-06T05:34:17.679Z,3.98
2023-04-06T05:36:45.614Z,3.89
2023-04-06T05:39:14.038Z,3.81
2023-04-06T05:41:43.292Z,3.86
2023-04-06T05:44:11.394Z,3.80
2023-04-06T05:46:39.332Z,3.96
2023-04-06T05:49:07.397Z,3.90
2023-04-06T05:51:35.382Z,3.98
2023-04-06T05:54:03.381Z,4.02
2023-04-06T05:56:33.019Z,4.05
2023-04-06T05:59:03.646Z,4.08
2023-04-06T06:01:31.829Z,4.12
2023-04-06T06:03:59.805Z,4.18
2023-04-06T06:06:29.700Z,4.25
2023-04-06T06:08:59.933Z,4.33
2023-04-06T06:11:27.883Z,4.29
2023-04-06T06:13:56.251Z,4.42
2023-04-06T06:16:25.655Z,4.63
2023-04-06T06:18:53.629Z,4.66
2023-04-06T06:21:21.504Z,4.75
2023-04-06T06:23:50.378Z,4.86
2023-04-06T06:26:18.562Z,4.99
2023-04-06T06:28:48.605Z,5.14
2023-04-06T06:31:16.644Z,5.19
2023-04-06T06:33:46.206Z,5.33
2023-04-06T06:36:14.150Z,5.44
2023-04-06T06:38:42.093Z,5.58
2023-04-06T06:41:10.114Z,5.69
2023-04-06T06:43:38.254Z,5.63
2023-04-06T06:46:07.058Z,5.73
2023-04-06T06:48:35.435Z,5.80
2023-04-06T06:51:05.153Z,5.90
2023-04-06T06:53:33.100Z,5.94
2023-04-06T06:56:01.042Z,6.12
2023-04-06T06:58:29.121Z,6.23
2023-04-06T07:00:59.363Z,6.35
2023-04-06T07:03:27.766Z,6.39
2023-04-06T07:05:56.012Z,6.44
2023-04-06T07:08:26.741Z,6.56
2023-04-06T07:10:57.201Z,6.73
2023-04-06T07:13:25.762Z,6.86
2023-04-06T07:15:54.095Z,6.96
2023-04-06T07:18:22.975Z,7.06
2023-04-06T07:20:51.251Z,7.28
2023-04-06T07:23:19.186Z,8.48
2023-04-06T07:25:48.533Z,11.05
2023-04-06T07:28:16.537Z,13.20
2023-04-06T07:30:44.587Z,15.09
2023-04-06T07:33:12.607Z,16.21
2023-04-06T07:35:40.847Z,16.43
2023-04-06T07:38:08.945Z,17.20
2023-04-06T07:40:36.844Z,17.86
2023-04-06T07:43:06.215Z,18.22
2023-04-06T07:45:34.249Z,18.48
2023-04-06T07:48:02.315Z,18.70
2023-04-06T07:50:30.581Z,19.07
2023-04-06T07:52:58.802Z,19.69
2023-04-06T07:55:26.763Z,19.51
2023-04-06T07:57:54.902Z,20.27
2023-04-06T08:00:24.574Z,20.98
2023-04-06T08:02:52.696Z,21.11
2023-04-06T08:05:20.744Z,21.27
2023-04-06T08:07:48.661Z,21.91
2023-04-06T08:10:16.754Z,21.93
2023-04-06T08:12:44.719Z,21.99
2023-04-06T08:15:13.015Z,22.07
2023-04-06T08:17:42.511Z,22.30
2023-04-06T08:20:11.195Z,22.43
2023-04-06T08:22:39.093Z,22.37
2023-04-06T08:25:08.230Z,22.60
2023-04-06T08:27:36.229Z,22.24
2023-04-06T08:30:04.683Z,22.22
2023-04-06T08:32:32.779Z,22.29
2023-04-06T08:35:02.152Z,22.51
2023-04-06T08:37:30.904Z,22.48
2023-04-06T08:39:59.934Z,22.61
2023-04-06T08:42:30.776Z,22.96
2023-04-06T08:44:58.782Z,23.25
2023-04-06T08:47:27.068Z,22.94
2023-04-06T08:49:55.918Z,22.86
2023-04-06T08:52:27.741Z,22.96
2023-04-06T08:54:56.004Z,23.27
2023-04-06T08:57:24.451Z,23.44
2023-04-06T08:59:53.377Z,23.46
2023-04-06T09:02:22.791Z,23.27
2023-04-06T09:04:54.701Z,22.28
2023-04-06T09:07:23.570Z,22.38
2023-04-06T09:09:52.960Z,22.17
2023-04-06T09:12:28.759Z,22.16
2023-04-06T09:14:57.625Z,22.11
2023-04-06T09:17:27.764Z,22.09
2023-04-06T09:19:56.913Z,21.75
2023-04-06T09:22:28.080Z,22.00
2023-04-06T09:24:57.634Z,22.19
2023-04-06T09:27:35.562Z,21.56
2023-04-06T09:30:08.917Z,21.54
2023-04-06T09:32:48.182Z,21.25
2023-04-06T09:35:16.739Z,20.91
2023-04-06T09:37:44.894Z,19.65
2023-04-06T09:40:15.865Z,19.09
2023-04-06T09:42:44.781Z,18.75
2023-04-06T09:45:13.206Z,17.89
2023-04-06T09:47:43.371Z,17.59
2023-04-06T09:50:13.346Z,17.09
2023-04-06T09:52:47.490Z,17.01
2023-04-06T09:55:35.450Z,16.99
2023-04-06T09:58:07.327Z,16.83
2023-04-06T10:00:45.193Z,16.56
2023-04-06T10:03:32.589Z,16.38
2023-04-06T10:06:07.036Z,16.01
2023-04-06T10:08:37.213Z,16.02
2023-04-06T10:11:06.940Z,15.85
2023-04-06T10:13:35.709Z,16.07
2023-04-06T10:16:04.075Z,16.05
2023-04-06T10:18:32.426Z,15.87
2023-04-06T10:21:05.296Z,15.88
2023-04-06T10:23:37.176Z,15.88
2023-04-06T10:26:07.503Z,16.05
2023-04-06T10:28:37.122Z,16.55
2023-04-06T10:31:08.155Z,16.72
2023-04-06T10:33:36.173Z,16.52
2023-04-06T10:36:12.768Z,16.60
2023-04-06T10:38:43.514Z,16.24
2023-04-06T10:41:15.088Z,15.74
2023-04-06T10:43:45.403Z,14.94
2023-04-06T10:46:14.497Z,15.01
2023-04-06T10:48:44.646Z,15.06
2023-04-06T10:51:14.257Z,14.90
2023-04-06T10:53:45.463Z,14.92
2023-04-06T10:56:17.079Z,14.86
2023-04-06T10:58:49.700Z,15.04
2023-04-06T11:01:18.991Z,15.01
2023-04-06T11:03:47.339Z,14.59
2023-04-06T11:06:21.221Z,14.78
2023-04-06T11:08:49.853Z,14.23
2023-04-06T11:11:21.141Z,14.16
2023-04-06T11:13:52.022Z,14.34
2023-04-06T11:16:21.396Z,14.34
2023-04-06T11:18:54.636Z,14.35
2023-04-06T11:21:35.363Z,14.10
2023-04-06T11:24:11.680Z,14.19
2023-04-06T11:26:43.049Z,14.13
2023-04-06T11:29:11.661Z,14.13
2023-04-06T11:31:45.079Z,14.27
2023-04-06T11:34:19.478Z,14.09
2023-04-06T11:36:48.943Z,13.98
2023-04-06T11:39:21.906Z,14.16
2023-04-06T11:41:51.923Z,14.25
2023-04-06T11:44:33.620Z,14.26
2023-04-06T11:47:03.322Z,14.23
2023-04-06T11:49:31.860Z,14.15
2023-04-06T11:52:01.292Z,14.37
2023-04-06T11:54:33.679Z,14.41
2023-04-06T11:57:04.626Z,14.13
2023-04-06T11:59:33.015Z,13.99
2023-04-06T12:02:01.170Z,13.88
2023-04-06T12:04:29.113Z,13.80
2023-04-06T12:06:57.262Z,13.93
2023-04-06T12:09:25.465Z,14.19
2023-04-06T12:11:53.417Z,14.48
2023-04-06T12:14:23.040Z,14.54
2023-04-06T12:16:50.920Z,14.37
2023-04-06T12:19:18.999Z,14.29
2023-04-06T12:21:47.037Z,14.34
2023-04-06T12:24:15.042Z,14.39
2023-04-06T12:26:43.294Z,14.55
2023-04-06T12:29:12.123Z,14.71
2023-04-06T12:31:45.580Z,14.52
2023-04-06T12:34:13.824Z,14.32
2023-04-06T12:36:41.823Z,14.25
2023-04-06T12:39:09.994Z,14.39
2023-04-06T12:41:38.144Z,14.44
2023-04-06T12:44:06.102Z,14.59
2023-04-06T12:46:34.214Z,14.74
2023-04-06T12:49:04.142Z,14.77
2023-04-06T12:51:33.007Z,14.73
2023-04-06T12:54:00.930Z,14.60
2023-04-06T12:56:29.124Z,14.61
2023-04-06T12:58:57.657Z,14.61
2023-04-06T13:03:54.501Z,14.72
2023-04-06T13:06:23.809Z,14.84
2023-04-06T13:08:53.358Z,14.89
2023-04-06T13:11:26.869Z,14.86
2023-04-06T13:13:56.234Z,14.85
2023-04-06T13:16:24.460Z,14.61
2023-04-06T13:18:52.385Z,14.56
2023-04-06T13:21:22.085Z,14.66
2023-04-06T13:23:53.424Z,14.67
2023-04-06T13:26:22.424Z,14.78
2023-04-06T13:28:50.642Z,15.01
2023-04-06T13:31:18.722Z,15.11
2023-04-06T13:33:46.900Z,15.11
2023-04-06T13:36:17.464Z,15.14
2023-04-06T13:38:46.295Z,15.02
2023-04-06T13:41:23.467Z,14.85
2023-04-06T13:43:51.949Z,14.78
2023-04-06T13:46:20.258Z,14.87
2023-04-06T13:48:49.122Z,14.90
2023-04-06T13:51:17.105Z,14.82
2023-04-06T13:53:45.130Z,14.84
2023-04-06T13:56:13.053Z,14.96
2023-04-06T13:58:45.908Z,14.81
2023-04-06T14:01:14.391Z,14.94
2023-04-06T14:03:43.344Z,15.24
2023-04-06T14:06:29.673Z,15.27
2023-04-06T14:08:59.433Z,15.29
2023-04-06T14:11:27.579Z,15.24
2023-04-06T14:13:58.511Z,15.26
2023-04-06T14:16:27.381Z,15.44
2023-04-06T14:18:56.134Z,15.00
2023-04-06T14:21:24.456Z,15.06
2023-04-06T14:23:53.651Z,14.94
2023-04-06T14:26:21.790Z,14.92
2023-04-06T14:28:50.063Z,14.98
2023-04-06T14:31:19.453Z,15.08
2023-04-06T14:33:47.722Z,15.17
2023-04-06T14:36:16.482Z,15.09
2023-04-06T14:38:45.209Z,14.84
2023-04-06T14:41:18.080Z,14.97
2023-04-06T14:43:46.339Z,15.20
2023-04-06T14:46:14.815Z,15.13
2023-04-06T14:48:44.198Z,15.27
2023-04-06T14:51:12.372Z,15.16
2023-04-06T14:53:40.350Z,15.05
2023-04-06T14:56:09.041Z,15.07
2023-04-06T14:58:37.289Z,15.04
2023-04-06T15:01:05.577Z,15.21
2023-04-06T15:03:33.448Z,15.71
2023-04-06T15:06:02.850Z,16.01
2023-04-06T15:08:30.760Z,16.16
2023-04-06T15:11:01.336Z,15.92
2023-04-06T15:13:29.370Z,15.75
2023-04-06T15:15:57.593Z,15.74
2023-04-06T15:18:26.271Z,15.72
2023-04-06T15:20:54.302Z,15.65
2023-04-06T15:23:26.450Z,15.54
2023-04-06T15:25:54.577Z,15.35
2023-04-06T15:28:24.931Z,15.19
2023-04-06T15:30:53.334Z,15.11
2023-04-06T15:33:25.256Z,15.27
2023-04-06T15:35:53.251Z,15.18
2023-04-06T15:38:22.310Z,15.03
2023-04-06T15:40:51.713Z,14.86
2023-04-06T15:43:19.895Z,14.66
2023-04-06T15:45:47.981Z,14.68
2023-04-06T15:48:16.387Z,14.66
2023-04-06T15:50:44.582Z,14.72
2023-04-06T15:53:12.742Z,14.71
2023-04-06T15:55:40.630Z,14.77
2023-04-06T15:58:10.132Z,14.72
2023-04-06T16:00:38.050Z,14.94
2023-04-06T16:03:06.285Z,14.88
2023-04-06T16:05:36.337Z,14.69
2023-04-06T16:08:17.031Z,14.41
2023-04-06T16:10:45.267Z,14.45
2023-04-06T16:13:16.697Z,14.65
2023-04-06T16:15:44.752Z,14.61
2023-04-06T16:18:12.636Z,14.48
2023-04-06T16:20:40.792Z,14.28
2023-04-06T16:23:14.860Z,14.29
2023-04-06T16:25:43.021Z,14.30
2023-04-06T16:28:11.324Z,14.23
2023-04-06T16:30:43.574Z,14.11
2023-04-06T16:33:13.886Z,13.98
2023-04-06T16:35:45.770Z,14.10
2023-04-06T16:38:26.294Z,14.21
2023-04-06T16:41:01.659Z,14.32
2023-04-06T16:43:29.734Z,14.09
2023-04-06T16:45:59.290Z,13.96
2023-04-06T16:48:27.467Z,13.94
2023-04-06T17:11:03.069Z,13.59
2023-04-06T17:13:32.492Z,13.60
2023-04-06T17:16:04.617Z,13.60
2023-04-06T17:18:34.780Z,13.56
2023-04-06T17:21:06.899Z,13.52
2023-04-06T17:23:35.347Z,13.43
2023-04-06T17:26:07.577Z,13.44
2023-04-06T17:28:35.812Z,13.37
2023-04-06T17:31:07.982Z,13.29
2023-04-06T17:33:36.479Z,13.31
2023-04-06T17:36:04.633Z,13.25
2023-04-06T17:38:45.889Z,13.19
2023-04-06T17:41:16.120Z,13.25
2023-04-06T17:43:44.063Z,13.19
2023-04-06T17:46:12.302Z,13.04
2023-04-06T17:48:40.629Z,12.92
2023-04-06T17:51:08.595Z,12.85
2023-04-06T17:53:37.230Z,12.78
2023-04-06T17:56:05.487Z,12.85
2023-04-06T17:58:35.411Z,12.84
2023-04-06T18:01:08.446Z,12.67
2023-04-06T18:03:36.769Z,12.54
2023-04-06T18:06:12.334Z,12.56
2023-04-06T18:08:40.431Z,12.56
2023-04-06T18:11:08.990Z,12.49
2023-04-06T18:13:40.085Z,12.39
2023-04-06T18:16:10.795Z,12.43
2023-04-06T18:18:39.161Z,12.34
2023-04-06T18:21:10.568Z,12.35
2023-04-06T18:23:38.828Z,12.16
2023-04-06T18:26:07.542Z,12.16
2023-04-06T18:28:39.702Z,12.10
2023-04-06T18:31:07.750Z,12.02
2023-04-06T18:33:35.728Z,11.98
2023-04-06T18:36:04.496Z,11.98
2023-04-06T18:38:32.461Z,11.93
2023-04-06T18:41:00.487Z,11.90
2023-04-06T18:43:28.726Z,11.82
2023-04-06T18:45:58.035Z,11.79
2023-04-06T18:48:25.993Z,11.87
2023-04-06T18:50:54.353Z,11.86
2023-04-06T18:53:23.701Z,11.69
2023-04-06T18:55:54.377Z,11.65
2023-04-06T18:58:23.399Z,11.67
2023-04-06T19:00:51.436Z,11.62
2023-04-06T19:03:22.104Z,11.59
2023-04-06T19:05:50.616Z,11.57
2023-04-06T19:08:18.680Z,11.51
2023-04-06T19:10:48.993Z,11.45
2023-04-06T19:13:19.554Z,11.42
2023-04-06T19:15:47.517Z,11.33
2023-04-06T19:18:15.564Z,11.38
2023-04-06T19:20:45.516Z,11.27
2023-04-06T19:23:13.911Z,11.23
2023-04-06T19:25:44.361Z,11.22
2023-04-06T19:28:14.461Z,11.14
2023-04-06T19:30:48.271Z,11.09
2023-04-06T19:33:17.363Z,11.01
2023-04-06T19:35:49.396Z,11.03
2023-04-06T19:38:17.306Z,11.01
2023-04-06T19:40:45.398Z,10.98
2023-04-06T19:43:16.376Z,10.94
2023-04-06T19:45:44.767Z,10.91
2023-04-06T19:48:13.154Z,10.98
2023-04-06T19:50:41.182Z,10.80
2023-04-06T19:53:10.860Z,10.86
2023-04-06T19:55:39.315Z,10.83
2023-04-06T19:58:07.513Z,10.78
2023-04-06T20:00:35.824Z,10.69
2023-04-06T20:03:04.121Z,10.64
2023-04-06T20:05:47.863Z,10.68
2023-04-06T20:08:17.245Z,10.63
2023-04-06T20:10:47.333Z,10.52
2023-04-06T20:13:15.683Z,10.51
2023-04-06T20:15:43.884Z,10.59
2023-04-06T20:18:14.124Z,10.61
2023-04-06T20:20:42.553Z,10.61
2023-04-06T20:23:12.731Z,10.65
2023-04-06T20:25:42.201Z,10.62
2023-04-06T20:28:10.900Z,10.55
2023-04-06T20:30:39.426Z,10.56
2023-04-06T20:33:07.576Z,10.52
2023-04-06T20:35:36.176Z,10.51
2023-04-06T20:38:04.663Z,10.44
2023-04-06T20:40:32.759Z,10.38
2023-04-06T20:43:03.356Z,10.41
2023-04-06T20:45:38.573Z,10.33
2023-04-06T20:48:06.697Z,10.41
2023-04-06T20:50:34.842Z,10.40
2023-04-06T20:53:02.891Z,10.28
2023-04-06T20:55:31.305Z,10.32
2023-04-06T20:57:59.492Z,10.26
2023-04-06T21:00:29.042Z,10.24
2023-04-06T21:02:57.265Z,10.26
2023-04-06T21:05:25.880Z,10.29
2023-04-06T21:07:53.920Z,10.21
2023-04-06T21:10:24.018Z,10.13
2023-04-06T21:12:52.112Z,10.09
2023-04-06T21:15:26.814Z,10.00
2023-04-06T21:17:56.726Z,9.99
2023-04-06T21:20:25.606Z,10.00
2023-04-06T21:22:53.808Z,9.98
2023-04-06T21:25:22.380Z,9.94
2023-04-06T21:27:53.393Z,9.82
2023-04-06T21:30:21.992Z,9.78
2023-04-06T21:32:50.174Z,9.79
2023-04-06T21:35:20.031Z,9.81
2023-04-06T21:37:48.029Z,9.81
2023-04-06T21:40:15.948Z,9.74
2023-04-06T21:42:44.206Z,9.74
2023-04-06T21:45:12.721Z,9.69
2023-04-06T21:47:41.042Z,9.65
2023-04-06T21:50:09.431Z,9.52
2023-04-06T21:52:39.158Z,9.51
2023-04-06T21:55:08.046Z,9.45
2023-04-06T21:57:36.953Z,9.38
2023-04-06T22:00:09.829Z,9.35
2023-04-06T22:02:39.438Z,9.34
2023-04-06T22:05:08.650Z,9.33
2023-04-06T22:07:38.709Z,9.23
2023-04-06T22:10:07.642Z,9.32
2023-04-06T22:12:36.032Z,9.27
2023-04-06T22:15:05.411Z,9.21
2023-04-06T22:17:45.428Z,9.25
2023-04-06T22:20:13.818Z,9.22
2023-04-06T22:22:43.369Z,9.18
2023-04-06T22:25:23.451Z,9.15
2023-04-06T22:27:53.493Z,9.07
2023-04-06T22:30:21.786Z,9.05
2023-04-06T22:32:49.861Z,8.99
2023-04-06T22:35:21.348Z,8.98
2023-04-06T22:37:53.044Z,8.96
2023-04-06T22:40:21.086Z,8.91
2023-04-06T22:42:49.281Z,8.84
2023-04-06T22:45:17.763Z,8.82
2023-04-06T22:47:45.897Z,8.86
2023-04-06T22:50:15.345Z,8.85
2023-04-06T22:52:43.504Z,8.79
2023-04-06T22:55:12.941Z,8.79
2023-04-06T22:57:40.991Z,8.73
2023-04-06T23:00:10.585Z,8.69
2023-04-06T23:02:39.879Z,8.64
2023-04-06T23:05:08.370Z,8.70
2023-04-06T23:07:36.655Z,8.61
2023-04-06T23:10:04.794Z,8.60
2023-04-06T23:12:34.362Z,8.47
2023-04-06T23:15:02.526Z,8.43
2023-04-06T23:17:30.810Z,8.47
2023-04-06T23:19:58.864Z,8.56
2023-04-06T23:22:27.112Z,8.55
2023-04-06T23:24:55.216Z,8.55
2023-04-06T23:27:23.250Z,8.60
2023-04-06T23:29:52.541Z,8.63
2023-04-06T23:32:20.499Z,8.54
2023-04-06T23:34:48.739Z,8.54
2023-04-06T23:37:16.746Z,8.44
2023-04-06T23:39:45.342Z,8.50
2023-04-06T23:42:13.253Z,8.43
2023-04-06T23:44:41.328Z,8.42
2023-04-06T23:47:11.862Z,8.48
2023-04-06T23:49:39.801Z,8.32
2023-04-06T23:52:07.879Z,8.36
2023-04-06T23:54:36.237Z,8.33
2023-04-06T23:57:04.540Z,8.29
2023-04-06T23:59:32.609Z,8.29
